KDEN/DEN METAR and TAF weather

Enter ICAO airport designator
Station Type Date Time Source
KDEN METAR 2019/12/13 13:53 UTC NOAA

KDEN 131353Z 23006KT 10SM FEW085 SCT130 SCT200 01/M04 A2990 RMK AO2 SLP111 SHSN OMTNS DSNT W T00111044


Station Type Date Time Source
KDEN Decoded METAR 2019/12/13 13:53 UTC NOAA

DENVER INTERNATIONAL AIRPORT, CO, United States (KDEN) 39-52N 104-40W 1640M
Dec 13, 2019 - 08:53 AM EST / 2019.12.13 1353 UTC
Wind: from the SW (230 degrees) at 7 MPH (6 KT):0
Visibility: 10 mile(s):0
Sky conditions: partly cloudy
Temperature: 34.0 F (1.1 C)
Windchill: 28 F (-2 C):1
Dew Point: 24.1 F (-4.4 C)
Relative Humidity: 66%
Pressure (altimeter): 29.9 in. Hg (1012 hPa)
ob: KDEN 131353Z 23006KT 10SM FEW085 SCT130 SCT200 01/M04 A2990 RMK AO2 SLP111 SHSN OMTNS DSNT W T00111044
cycle: 14

Station Type Date Time Source
KDEN TAF 2019/12/13 12:45 UTC NOAA

TAF KDEN 131142Z 1312/1418 22012KT P6SM FEW100 SCT160
FM131600 32016G26KT P6SM FEW120 SCT180
TEMPO 1319/1323 31022G34KT
FM140100 02008KT P6SM FEW120 SCT220
FM140500 17010KT P6SM SCT120 BKN180
FM141000 15010KT P6SM SCT100 BKN150
FM141400 14008KT P6SM SCT050 BKN080

Example: see airport list